Time;durP1;ratioP1;P1;durP2;ratioP2;P2;SDS_P1;SDS_P2;PMS_P1;PMS_P2;Temp;Humidity;BMP_temperature;BMP_pressure;BME280_temperature;BME280_humidity;BME280_pressure;Samples;Min_cycle;Max_cycle;Signal;HPM_P1;HPM_P2
2024/01/20 00:01:26;;;;;;;11.48;5.20;;;14.00;32.70;;;;;;5150878;27;45394;-48
2024/01/20 00:03:55;;;;;;;8.75;4.80;;;14.00;32.60;;;;;;5149220;27;45284;-48
2024/01/20 00:06:21;;;;;;;9.82;4.65;;;14.00;32.60;;;;;;5153782;27;45436;-48
2024/01/20 00:08:48;;;;;;;7.88;4.75;;;14.00;32.60;;;;;;5152210;27;45190;-48
2024/01/20 00:11:15;;;;;;;7.07;4.60;;;13.90;32.50;;;;;;5158302;27;44704;-48
2024/01/20 00:13:42;;;;;;;8.82;4.68;;;14.00;32.60;;;;;;5152367;27;46022;-48
2024/01/20 00:16:09;;;;;;;10.77;4.50;;;14.00;32.30;;;;;;5153616;27;45176;-48
2024/01/20 00:18:35;;;;;;;6.20;4.47;;;14.00;32.10;;;;;;5153559;27;45196;-48
2024/01/20 00:21:04;;;;;;;8.07;4.60;;;14.00;32.10;;;;;;5152892;27;45105;-48
2024/01/20 00:23:31;;;;;;;7.60;4.57;;;14.00;32.20;;;;;;5151937;27;45546;-48
2024/01/20 00:25:57;;;;;;;6.90;4.10;;;14.10;32.30;;;;;;5150527;27;45245;-49
2024/01/20 00:28:24;;;;;;;6.28;3.90;;;14.00;32.30;;;;;;5150482;27;44692;-48
2024/01/20 00:30:51;;;;;;;6.03;4.07;;;14.00;32.40;;;;;;5154614;27;45195;-48
2024/01/20 00:33:17;;;;;;;7.30;3.90;;;14.00;32.20;;;;;;5152228;27;45642;-48
2024/01/20 00:35:45;;;;;;;7.45;4.47;;;14.00;32.00;;;;;;5151145;27;45159;-48
2024/01/20 00:38:13;;;;;;;8.00;4.43;;;14.00;32.00;;;;;;5151405;27;44698;-49
2024/01/20 00:40:40;;;;;;;7.43;3.90;;;14.00;32.00;;;;;;5155961;27;45329;-48
2024/01/20 00:43:07;;;;;;;9.02;4.32;;;14.00;32.00;;;;;;5153258;27;45617;-48
2024/01/20 00:45:33;;;;;;;8.75;4.70;;;14.00;32.00;;;;;;5154020;27;45113;-48
2024/01/20 00:48:00;;;;;;;6.80;3.97;;;14.00;32.00;;;;;;5153821;27;45183;-48
2024/01/20 00:50:27;;;;;;;7.03;4.43;;;14.00;32.10;;;;;;5152087;27;45297;-48
2024/01/20 00:52:54;;;;;;;6.70;4.07;;;13.90;32.00;;;;;;5153827;27;45294;-48
2024/01/20 00:55:22;;;;;;;5.93;3.95;;;14.00;31.90;;;;;;5153788;27;45212;-48
2024/01/20 00:57:49;;;;;;;6.68;3.92;;;14.00;31.90;;;;;;5150474;27;45259;-48
2024/01/20 01:00:16;;;;;;;6.68;4.32;;;13.90;31.70;;;;;;5152899;27;45103;-48
2024/01/20 01:02:43;;;;;;;8.43;4.00;;;14.00;31.70;;;;;;5154215;27;47270;-48
2024/01/20 01:05:10;;;;;;;6.07;3.80;;;14.00;31.60;;;;;;5151653;27;45158;-48
2024/01/20 01:07:37;;;;;;;8.88;3.88;;;14.00;31.80;;;;;;5152800;27;45715;-48
2024/01/20 01:10:06;;;;;;;5.55;3.90;;;14.00;31.60;;;;;;5150741;27;45109;-48
2024/01/20 01:12:33;;;;;;;5.57;4.13;;;14.00;31.60;;;;;;5152273;27;47329;-48
2024/01/20 01:15:01;;;;;;;9.10;4.47;;;14.00;31.40;;;;;;5151468;27;45365;-48
2024/01/20 01:17:27;;;;;;;7.53;4.35;;;14.00;31.50;;;;;;5149277;27;45251;-48
2024/01/20 01:19:54;;;;;;;7.68;4.22;;;14.00;31.70;;;;;;5152432;27;45524;-48
2024/01/20 01:22:21;;;;;;;5.97;4.00;;;14.00;31.40;;;;;;5151783;27;45264;-48
2024/01/20 01:24:48;;;;;;;6.75;4.10;;;13.90;31.40;;;;;;5149578;27;44769;-48
2024/01/20 01:27:14;;;;;;;7.35;4.00;;;13.90;31.30;;;;;;5151671;27;45298;-48
2024/01/20 01:29:43;;;;;;;8.75;4.28;;;14.00;32.50;;;;;;5151862;27;45441;-48
2024/01/20 01:32:09;;;;;;;8.40;4.18;;;13.90;31.20;;;;;;5149518;27;47982;-48
2024/01/20 01:34:36;;;;;;;8.05;3.83;;;13.90;31.40;;;;;;5150950;27;45678;-48
2024/01/20 01:37:03;;;;;;;6.85;4.13;;;13.90;31.40;;;;;;5151412;27;44675;-48
2024/01/20 01:39:30;;;;;;;5.32;3.55;;;13.90;31.40;;;;;;5150255;27;45298;-48
2024/01/20 01:41:57;;;;;;;6.05;3.78;;;13.90;31.30;;;;;;5152111;27;45357;-48
2024/01/20 01:44:24;;;;;;;6.55;4.05;;;13.90;31.40;;;;;;5153497;27;45225;-48
2024/01/20 01:46:52;;;;;;;5.70;4.13;;;13.90;31.20;;;;;;5154297;27;45178;-48
2024/01/20 01:49:19;;;;;;;5.95;3.65;;;13.90;31.30;;;;;;5151558;27;45206;-48
2024/01/20 01:51:46;;;;;;;6.45;3.95;;;13.90;31.40;;;;;;5152952;27;47095;-48
2024/01/20 01:54:13;;;;;;;6.60;4.15;;;13.90;31.30;;;;;;5147876;27;45398;-48
2024/01/20 01:56:42;;;;;;;7.85;4.22;;;14.00;31.10;;;;;;5152951;27;45227;-48
2024/01/20 01:59:10;;;;;;;6.50;3.97;;;14.00;30.80;;;;;;5149861;27;45471;-48
2024/01/20 02:01:36;;;;;;;7.07;4.13;;;14.00;30.80;;;;;;5150494;27;46532;-48
2024/01/20 02:04:05;;;;;;;6.35;3.55;;;13.90;30.80;;;;;;5148653;27;45264;-48
2024/01/20 02:06:32;;;;;;;6.38;3.75;;;13.90;31.00;;;;;;5151625;27;45232;-48
2024/01/20 02:09:00;;;;;;;5.25;3.45;;;13.90;31.20;;;;;;5150382;27;45335;-48
2024/01/20 02:11:27;;;;;;;7.30;3.90;;;13.90;31.10;;;;;;5150894;27;45224;-48
2024/01/20 02:13:55;;;;;;;9.02;4.30;;;13.90;31.10;;;;;;5147676;27;45169;-48
2024/01/20 02:16:22;;;;;;;6.03;3.90;;;13.90;31.00;;;;;;5149664;27;45405;-48
2024/01/20 02:18:48;;;;;;;6.35;3.78;;;13.90;30.80;;;;;;5151513;27;45357;-48
2024/01/20 02:21:17;;;;;;;7.43;4.13;;;13.90;30.70;;;;;;5148867;27;46555;-48
2024/01/20 02:23:49;;;;;;;6.43;3.83;;;13.90;30.90;;;;;;5150698;27;45301;-48
2024/01/20 02:26:15;;;;;;;6.18;4.20;;;13.90;30.90;;;;;;5150054;27;45374;-48
2024/01/20 02:28:42;;;;;;;5.93;3.53;;;13.90;30.70;;;;;;5147226;27;45189;-48
2024/01/20 02:31:09;;;;;;;6.05;3.75;;;13.90;30.60;;;;;;5147917;27;47451;-48
2024/01/20 02:33:36;;;;;;;5.90;4.00;;;13.90;30.90;;;;;;5150631;27;45222;-48
2024/01/20 02:36:02;;;;;;;5.07;3.38;;;13.90;30.30;;;;;;5148894;27;45263;-48
2024/01/20 02:38:29;;;;;;;7.28;3.55;;;13.80;29.90;;;;;;5146787;27;45435;-48
2024/01/20 02:40:57;;;;;;;5.07;4.10;;;13.80;29.40;;;;;;5148592;27;45426;-48
2024/01/20 02:43:24;;;;;;;5.95;3.63;;;13.80;29.20;;;;;;5150041;27;45266;-48
2024/01/20 02:45:51;;;;;;;6.45;3.50;;;13.80;28.70;;;;;;5152688;27;45340;-48
2024/01/20 02:48:18;;;;;;;5.38;3.13;;;13.80;28.70;;;;;;5151631;27;45710;-49
2024/01/20 02:50:44;;;;;;;5.30;3.60;;;13.80;28.60;;;;;;5153565;27;45235;-48
2024/01/20 02:53:11;;;;;;;6.15;4.10;;;13.70;28.70;;;;;;5147740;27;45351;-48
2024/01/20 02:55:38;;;;;;;5.50;3.35;;;13.70;28.40;;;;;;5149677;27;45179;-48
2024/01/20 02:58:06;;;;;;;5.07;3.17;;;13.70;28.50;;;;;;5151245;27;45193;-49
2024/01/20 03:00:33;;;;;;;5.32;3.38;;;13.70;30.80;;;;;;5153039;27;46038;-49
2024/01/20 03:02:59;;;;;;;5.80;3.70;;;13.70;31.30;;;;;;5147953;27;45592;-49
2024/01/20 03:05:26;;;;;;;6.32;3.70;;;13.70;30.30;;;;;;5153207;27;44738;-49
2024/01/20 03:07:53;;;;;;;6.95;4.05;;;13.70;29.70;;;;;;5151800;27;45116;-49
2024/01/20 03:10:20;;;;;;;5.13;3.58;;;13.60;29.50;;;;;;5149576;27;47616;-49
2024/01/20 03:12:46;;;;;;;5.53;3.20;;;13.60;29.20;;;;;;5152424;27;45367;-49
2024/01/20 03:15:15;;;;;;;4.88;3.17;;;13.60;29.40;;;;;;5150344;27;45258;-49
2024/01/20 03:17:41;;;;;;;5.68;3.60;;;13.60;29.00;;;;;;5151281;27;45196;-49
2024/01/20 03:20:09;;;;;;;7.72;3.58;;;13.60;28.90;;;;;;5153859;27;46140;-48
2024/01/20 03:22:36;;;;;;;6.35;3.63;;;13.60;28.50;;;;;;5153187;27;45284;-49
2024/01/20 03:25:03;;;;;;;6.63;3.95;;;13.60;28.60;;;;;;5150253;27;45243;-49
2024/01/20 03:27:30;;;;;;;5.60;3.30;;;13.50;28.40;;;;;;5151750;27;45359;-49
2024/01/20 03:29:56;;;;;;;6.72;4.03;;;13.60;28.40;;;;;;5148886;27;45235;-48
2024/01/20 03:32:24;;;;;;;7.07;3.38;;;13.50;28.20;;;;;;5149339;27;45161;-48
2024/01/20 03:34:51;;;;;;;5.10;3.60;;;13.50;27.90;;;;;;5152140;27;45230;-49
2024/01/20 03:37:18;;;;;;;5.53;3.45;;;13.50;27.90;;;;;;5152777;27;45509;-48
2024/01/20 03:39:44;;;;;;;5.03;3.53;;;13.50;27.90;;;;;;5150120;27;45297;-48
2024/01/20 03:42:11;;;;;;;6.38;4.03;;;13.50;27.90;;;;;;5154578;27;45267;-48
2024/01/20 03:44:38;;;;;;;7.50;4.15;;;13.50;27.80;;;;;;5154227;27;45698;-48
2024/01/20 03:47:05;;;;;;;5.28;3.50;;;13.50;27.80;;;;;;5150839;27;45103;-48
2024/01/20 03:49:33;;;;;;;6.18;3.90;;;13.40;27.40;;;;;;5148326;27;46276;-48
2024/01/20 03:52:00;;;;;;;7.15;3.92;;;13.40;27.60;;;;;;5153105;27;45206;-48
2024/01/20 03:54:26;;;;;;;7.05;4.30;;;13.40;27.40;;;;;;5147358;27;44747;-48
2024/01/20 03:56:53;;;;;;;8.75;4.45;;;13.40;27.40;;;;;;5147879;27;45122;-48
2024/01/20 03:59:20;;;;;;;7.18;4.55;;;13.40;27.30;;;;;;5153413;27;46525;-48
2024/01/20 04:01:47;;;;;;;7.72;4.20;;;13.40;27.20;;;;;;5151876;27;45231;-48
2024/01/20 04:04:13;;;;;;;7.20;4.22;;;13.40;27.20;;;;;;5150840;27;45211;-48
2024/01/20 04:06:41;;;;;;;8.35;4.60;;;13.40;27.10;;;;;;5149160;27;45196;-48
2024/01/20 04:09:08;;;;;;;6.80;4.40;;;13.40;27.00;;;;;;5148278;27;48011;-48
2024/01/20 04:11:35;;;;;;;6.20;4.13;;;13.40;26.90;;;;;;5150224;27;45933;-48
2024/01/20 04:14:02;;;;;;;5.88;3.90;;;13.40;27.00;;;;;;5147197;27;45325;-48
2024/01/20 04:16:28;;;;;;;6.28;4.20;;;13.30;26.70;;;;;;5150809;27;45211;-48
2024/01/20 04:18:55;;;;;;;8.18;4.30;;;13.30;26.70;;;;;;5147016;27;46998;-48
2024/01/20 04:21:23;;;;;;;7.78;4.72;;;13.30;26.30;;;;;;5149562;27;45165;-48
2024/01/20 04:23:51;;;;;;;4.95;3.85;;;13.30;26.50;;;;;;5147995;27;45203;-48
2024/01/20 04:26:18;;;;;;;5.38;3.65;;;13.30;26.40;;;;;;5149322;27;45475;-48
2024/01/20 04:28:45;;;;;;;8.57;4.28;;;13.30;26.40;;;;;;5148194;27;46349;-48
2024/01/20 04:31:12;;;;;;;6.20;3.90;;;13.30;26.60;;;;;;5148726;27;45409;-48
2024/01/20 04:33:39;;;;;;;6.97;4.03;;;13.30;26.50;;;;;;5146013;27;45314;-48
2024/01/20 04:36:06;;;;;;;6.22;3.83;;;13.30;26.50;;;;;;5146060;27;45355;-49
2024/01/20 04:38:33;;;;;;;5.63;3.88;;;13.30;26.50;;;;;;5148278;27;46536;-48
2024/01/20 04:41:01;;;;;;;7.28;4.20;;;13.30;26.30;;;;;;5145545;27;45452;-48
2024/01/20 04:43:28;;;;;;;7.65;4.18;;;13.30;26.40;;;;;;5149775;27;45266;-48
2024/01/20 04:45:55;;;;;;;7.72;4.13;;;13.30;26.50;;;;;;5145930;27;45366;-48
2024/01/20 04:48:22;;;;;;;5.45;3.95;;;13.30;26.30;;;;;;5149442;27;47603;-48
2024/01/20 04:50:48;;;;;;;6.22;3.67;;;13.20;26.40;;;;;;5150298;27;45137;-48
2024/01/20 04:53:15;;;;;;;5.15;3.40;;;13.30;26.60;;;;;;5151799;27;45414;-48
2024/01/20 04:55:42;;;;;;;5.35;3.50;;;13.20;26.40;;;;;;5155153;27;45274;-48
2024/01/20 04:58:10;;;;;;;6.32;3.70;;;13.20;26.40;;;;;;5153591;27;45626;-48
2024/01/20 05:00:37;;;;;;;6.38;3.92;;;13.20;26.30;;;;;;5155251;27;45138;-48
2024/01/20 05:03:04;;;;;;;7.72;3.95;;;13.20;26.40;;;;;;5149011;27;45502;-48
2024/01/20 05:05:31;;;;;;;5.78;3.78;;;13.20;26.30;;;;;;5150867;27;44876;-48
2024/01/20 05:07:57;;;;;;;6.18;4.00;;;13.30;26.30;;;;;;5150145;27;46377;-48
2024/01/20 05:10:24;;;;;;;8.07;4.22;;;13.30;26.30;;;;;;5149705;27;45297;-48
2024/01/20 05:12:51;;;;;;;6.25;3.95;;;13.30;26.30;;;;;;5150701;27;45353;-48
2024/01/20 05:15:19;;;;;;;6.10;3.97;;;13.30;26.20;;;;;;5151287;27;45324;-48
2024/01/20 05:17:46;;;;;;;6.72;4.05;;;13.20;26.00;;;;;;5150711;27;45259;-48
2024/01/20 05:20:14;;;;;;;7.25;3.65;;;13.20;26.00;;;;;;5156478;27;45286;-48
2024/01/20 05:22:41;;;;;;;6.25;4.43;;;13.20;26.00;;;;;;5154049;27;45177;-48
2024/01/20 05:25:09;;;;;;;6.63;4.05;;;13.20;25.80;;;;;;5153484;27;45192;-48
2024/01/20 05:27:35;;;;;;;6.55;4.05;;;13.20;25.50;;;;;;5148573;27;45423;-48
2024/01/20 05:30:02;;;;;;;7.57;4.20;;;13.20;25.80;;;;;;5151705;27;45260;-49
2024/01/20 05:32:31;;;;;;;7.57;4.32;;;13.20;25.70;;;;;;5155364;27;45220;-48
2024/01/20 05:34:57;;;;;;;6.00;4.07;;;13.20;25.60;;;;;;5152632;27;45134;-48
2024/01/20 05:37:24;;;;;;;7.57;4.22;;;13.20;25.70;;;;;;5154170;27;46241;-48
2024/01/20 05:39:51;;;;;;;6.72;4.50;;;13.20;25.70;;;;;;5151048;27;45554;-48
2024/01/20 05:42:18;;;;;;;6.70;3.78;;;13.20;25.40;;;;;;5152821;27;45195;-48
2024/01/20 05:44:45;;;;;;;6.93;4.30;;;13.20;25.50;;;;;;5153745;27;45362;-48
2024/01/20 05:47:12;;;;;;;6.93;4.45;;;13.20;25.50;;;;;;5155941;27;47414;-48
2024/01/20 05:49:40;;;;;;;7.45;4.85;;;13.20;25.30;;;;;;5151609;27;45396;-48
2024/01/20 05:52:06;;;;;;;5.57;4.20;;;13.20;25.40;;;;;;5151672;27;45196;-48
2024/01/20 05:54:33;;;;;;;6.82;4.50;;;13.20;25.30;;;;;;5153574;27;45152;-48
2024/01/20 05:57:00;;;;;;;7.45;4.10;;;13.20;25.20;;;;;;5150657;27;46187;-48
2024/01/20 05:59:27;;;;;;;5.13;3.88;;;13.20;25.30;;;;;;5155563;27;45251;-48
2024/01/20 06:01:53;;;;;;;5.70;4.28;;;13.30;25.40;;;;;;5152733;27;45096;-49
2024/01/20 06:04:20;;;;;;;7.10;3.97;;;13.30;25.70;;;;;;5149193;27;45241;-49
2024/01/20 06:06:49;;;;;;;5.65;3.40;;;13.30;29.50;;;;;;5155844;27;45472;-49
2024/01/20 06:09:16;;;;;;;5.20;3.72;;;13.30;27.90;;;;;;5160867;27;45155;-49
2024/01/20 06:11:43;;;;;;;6.93;4.55;;;13.30;27.20;;;;;;5150397;27;45337;-49
2024/01/20 06:14:09;;;;;;;7.03;4.43;;;13.30;26.90;;;;;;5147909;27;45286;-49
2024/01/20 06:16:38;;;;;;;6.43;3.78;;;13.20;26.70;;;;;;5149354;27;45194;-49
2024/01/20 06:19:05;;;;;;;6.55;4.35;;;13.20;26.50;;;;;;5148267;27;45158;-49
2024/01/20 06:21:32;;;;;;;6.75;4.38;;;13.20;26.40;;;;;;5150804;27;45279;-49
2024/01/20 06:24:00;;;;;;;6.07;3.75;;;13.20;26.20;;;;;;5148811;27;44907;-49
2024/01/20 06:26:27;;;;;;;5.57;3.60;;;13.20;26.30;;;;;;5150719;27;45450;-48
2024/01/20 06:28:54;;;;;;;5.30;3.80;;;13.20;26.10;;;;;;5148311;27;45285;-48
2024/01/20 06:31:24;;;;;;;5.80;3.83;;;13.20;25.90;;;;;;5149794;27;44724;-48
2024/01/20 06:33:51;;;;;;;4.88;3.28;;;13.10;25.80;;;;;;5150454;27;45250;-49
2024/01/20 06:36:18;;;;;;;5.40;3.30;;;13.10;25.80;;;;;;5150747;27;47281;-49
2024/01/20 06:38:45;;;;;;;6.80;3.60;;;13.10;25.70;;;;;;5152130;27;45205;-49
2024/01/20 06:41:14;;;;;;;5.13;3.63;;;13.10;25.70;;;;;;5151553;27;45135;-49
2024/01/20 06:43:40;;;;;;;8.52;4.35;;;13.10;25.60;;;;;;5153500;27;45179;-49
2024/01/20 06:46:07;;;;;;;6.70;4.10;;;13.10;25.70;;;;;;5151578;27;45384;-49
2024/01/20 06:48:34;;;;;;;5.57;3.50;;;13.10;25.50;;;;;;5152789;27;45283;-49
2024/01/20 06:51:02;;;;;;;5.45;3.42;;;13.10;25.60;;;;;;5150604;27;45144;-49
2024/01/20 06:53:28;;;;;;;7.68;4.15;;;13.10;25.50;;;;;;5154536;27;44701;-48
2024/01/20 06:55:56;;;;;;;6.18;3.70;;;13.10;25.50;;;;;;5151440;27;46254;-48
2024/01/20 06:58:24;;;;;;;6.38;3.70;;;13.10;25.50;;;;;;5155867;27;45571;-48
2024/01/20 07:00:51;;;;;;;6.00;3.67;;;13.10;25.30;;;;;;5152620;27;45166;-49
2024/01/20 07:03:18;;;;;;;5.63;3.40;;;13.10;25.70;;;;;;5151477;27;45217;-49
2024/01/20 07:05:45;;;;;;;5.75;3.65;;;13.10;25.30;;;;;;5148759;27;46046;-49
2024/01/20 07:08:11;;;;;;;5.82;3.53;;;13.10;25.30;;;;;;5148974;27;45466;-49
2024/01/20 07:10:38;;;;;;;5.65;3.20;;;13.10;25.40;;;;;;5150393;27;45280;-48
2024/01/20 07:13:05;;;;;;;6.72;3.63;;;13.10;25.40;;;;;;5152204;27;45436;-48
2024/01/20 07:15:33;;;;;;;6.80;3.88;;;13.10;25.30;;;;;;5154793;27;46279;-49
2024/01/20 07:18:00;;;;;;;5.53;3.47;;;13.10;25.30;;;;;;5150358;27;46136;-48
2024/01/20 07:20:27;;;;;;;6.97;3.30;;;13.10;25.30;;;;;;5153396;27;46128;-48
2024/01/20 07:22:53;;;;;;;5.50;3.78;;;13.00;25.20;;;;;;5150145;27;44783;-48
2024/01/20 07:25:20;;;;;;;6.20;3.42;;;13.00;25.00;;;;;;5148316;27;47739;-48
2024/01/20 07:27:47;;;;;;;6.15;3.40;;;13.00;25.10;;;;;;5149806;27;45237;-48
2024/01/20 07:30:14;;;;;;;5.30;3.28;;;13.00;25.20;;;;;;5155707;27;45128;-48
2024/01/20 07:32:42;;;;;;;5.45;3.20;;;13.00;25.10;;;;;;5150857;27;45538;-48
2024/01/20 07:35:10;;;;;;;7.05;3.72;;;13.00;25.00;;;;;;5153512;27;46203;-48
2024/01/20 07:37:37;;;;;;;6.18;3.95;;;13.00;24.80;;;;;;5150879;27;45860;-48
2024/01/20 07:40:04;;;;;;;7.10;3.55;;;13.00;25.00;;;;;;5149094;27;45251;-48
2024/01/20 07:42:34;;;;;;;8.27;4.07;;;13.00;24.90;;;;;;5152698;27;45165;-48
2024/01/20 07:45:00;;;;;;;7.47;3.28;;;13.00;24.90;;;;;;5149834;27;48825;-48
2024/01/20 07:47:27;;;;;;;5.38;3.92;;;13.00;24.80;;;;;;5153093;27;45150;-48
2024/01/20 07:49:55;;;;;;;7.93;4.35;;;13.00;25.00;;;;;;5150593;27;45337;-48
2024/01/20 07:52:22;;;;;;;7.53;4.70;;;13.00;24.70;;;;;;5149001;27;44968;-48
2024/01/20 07:54:49;;;;;;;8.55;4.88;;;13.00;24.70;;;;;;5144953;27;45301;-48
2024/01/20 07:57:15;;;;;;;6.68;4.20;;;13.00;24.70;;;;;;5148296;27;45290;-48
2024/01/20 07:59:42;;;;;;;7.10;4.68;;;12.90;24.60;;;;;;5147719;27;45386;-48
2024/01/20 08:02:09;;;;;;;6.82;4.10;;;13.00;24.60;;;;;;5149441;27;45529;-48
2024/01/20 08:04:36;;;;;;;6.80;4.50;;;13.00;24.60;;;;;;5147015;27;46394;-48
2024/01/20 08:07:04;;;;;;;7.35;4.70;;;12.90;24.60;;;;;;5148139;27;45168;-48
2024/01/20 08:09:31;;;;;;;6.00;3.75;;;12.90;24.50;;;;;;5152347;27;45206;-48
2024/01/20 08:11:57;;;;;;;8.63;4.53;;;12.90;24.30;;;;;;5146968;27;45211;-48
2024/01/20 08:14:24;;;;;;;6.53;4.25;;;12.90;24.50;;;;;;5147464;27;45192;-48
2024/01/20 08:16:52;;;;;;;6.10;3.88;;;12.90;24.50;;;;;;5148801;27;45223;-48
2024/01/20 08:19:19;;;;;;;6.75;4.13;;;13.00;24.70;;;;;;5147948;27;45229;-48
2024/01/20 08:21:45;;;;;;;7.03;4.20;;;12.90;24.60;;;;;;5147513;27;45409;-48
2024/01/20 08:24:13;;;;;;;6.20;3.63;;;12.90;24.60;;;;;;5144632;27;46541;-48
2024/01/20 08:26:41;;;;;;;5.65;3.83;;;12.90;24.60;;;;;;5149678;27;45310;-48
2024/01/20 08:29:08;;;;;;;6.40;3.95;;;12.90;24.70;;;;;;5150922;27;45156;-48
2024/01/20 08:31:35;;;;;;;5.20;3.60;;;12.90;24.70;;;;;;5151569;27;45156;-48
2024/01/20 08:34:02;;;;;;;6.60;3.80;;;12.90;24.70;;;;;;5147658;27;45215;-49
2024/01/20 08:36:29;;;;;;;4.55;3.50;;;13.00;25.00;;;;;;5151957;27;45225;-49
2024/01/20 08:38:56;;;;;;;4.80;3.30;;;13.00;25.30;;;;;;5152731;27;45228;-50
2024/01/20 08:41:24;;;;;;;7.75;4.10;;;13.10;25.60;;;;;;5155916;27;45300;-49
2024/01/20 08:43:52;;;;;;;8.05;4.07;;;13.20;25.60;;;;;;5153390;27;47138;-49
2024/01/20 08:46:18;;;;;;;8.57;4.32;;;13.30;25.70;;;;;;5156484;27;45133;-49
2024/01/20 08:48:45;;;;;;;7.28;4.32;;;13.40;26.60;;;;;;5149880;27;45567;-49
2024/01/20 08:51:12;;;;;;;6.35;4.18;;;13.50;25.70;;;;;;5153391;27;45143;-48
2024/01/20 08:53:39;;;;;;;6.43;3.80;;;13.50;25.70;;;;;;5150456;27;46089;-49
2024/01/20 08:56:06;;;;;;;6.45;3.65;;;13.60;25.90;;;;;;5151990;27;45217;-49
2024/01/20 08:58:34;;;;;;;6.20;3.72;;;13.50;25.90;;;;;;5148441;27;44935;-49
2024/01/20 09:01:01;;;;;;;5.80;3.92;;;13.50;26.20;;;;;;5152795;27;45484;-49
2024/01/20 09:03:28;;;;;;;8.10;3.95;;;13.50;26.40;;;;;;5152745;27;47949;-49
2024/01/20 09:05:55;;;;;;;5.68;3.95;;;13.40;26.50;;;;;;5151245;27;45234;-49
2024/01/20 09:08:22;;;;;;;6.10;3.80;;;13.40;26.60;;;;;;5152405;27;45145;-49
2024/01/20 09:10:49;;;;;;;6.03;3.92;;;13.40;26.80;;;;;;5154194;27;45455;-49
2024/01/20 09:13:17;;;;;;;5.93;4.10;;;13.40;26.70;;;;;;5148832;27;45278;-49
2024/01/20 09:15:45;;;;;;;6.72;3.35;;;13.40;26.80;;;;;;5151139;27;45249;-49
2024/01/20 09:18:16;;;;;;;7.10;3.60;;;13.40;27.90;;;;;;5152775;27;45278;-49
2024/01/20 09:20:42;;;;;;;6.45;4.07;;;13.40;27.00;;;;;;5152163;27;45316;-49
2024/01/20 09:23:09;;;;;;;7.28;3.85;;;13.40;26.90;;;;;;5151220;27;46491;-49
2024/01/20 09:25:36;;;;;;;6.90;4.43;;;13.30;26.70;;;;;;5150855;27;45310;-49
2024/01/20 09:28:04;;;;;;;9.60;4.72;;;13.20;26.50;;;;;;5151695;27;45191;-49
2024/01/20 09:30:31;;;;;;;8.95;4.78;;;13.20;26.40;;;;;;5151663;27;45430;-49
2024/01/20 09:32:59;;;;;;;6.47;4.15;;;13.20;26.60;;;;;;5153619;27;45234;-49
2024/01/20 09:35:26;;;;;;;6.57;4.10;;;13.20;26.60;;;;;;5152625;27;45214;-49
2024/01/20 09:37:53;;;;;;;9.85;4.80;;;13.20;26.40;;;;;;5151038;27;44651;-49
2024/01/20 09:40:19;;;;;;;5.72;3.97;;;13.20;26.20;;;;;;5150780;27;45661;-49
2024/01/20 09:42:47;;;;;;;7.05;4.35;;;13.20;26.30;;;;;;5150289;27;47144;-49
2024/01/20 09:45:14;;;;;;;6.32;4.10;;;13.20;26.30;;;;;;5151712;27;45261;-49
2024/01/20 09:47:41;;;;;;;7.40;5.28;;;13.20;26.20;;;;;;5153276;27;45385;-49
2024/01/20 09:50:10;;;;;;;6.72;4.70;;;13.20;26.20;;;;;;5148729;27;45584;-49
2024/01/20 09:52:48;;;;;;;7.78;4.80;;;13.20;26.20;;;;;;5152536;27;46230;-48
2024/01/20 09:55:19;;;;;;;7.90;4.78;;;13.20;26.10;;;;;;5151296;27;45181;-49
2024/01/20 09:57:46;;;;;;;7.57;4.00;;;13.20;26.10;;;;;;5155811;27;44640;-49
2024/01/20 10:00:16;;;;;;;8.15;4.90;;;13.20;26.60;;;;;;5150318;27;45338;-49
2024/01/20 10:02:45;;;;;;;7.50;4.80;;;13.30;28.10;;;;;;5153865;27;46364;-49
2024/01/20 10:05:14;;;;;;;8.18;4.90;;;13.30;27.50;;;;;;5151764;27;45616;-49
2024/01/20 10:07:42;;;;;;;7.90;4.97;;;13.20;27.40;;;;;;5151390;27;45186;-49
2024/01/20 10:10:10;;;;;;;10.23;5.40;;;13.20;27.20;;;;;;5150697;27;45340;-49
2024/01/20 10:12:37;;;;;;;7.95;4.82;;;13.10;27.10;;;;;;5154434;27;46509;-49
2024/01/20 10:15:04;;;;;;;11.43;5.35;;;13.10;27.00;;;;;;5150079;27;45285;-49
2024/01/20 10:17:37;;;;;;;7.65;4.85;;;13.00;26.90;;;;;;5150210;27;45284;-48
2024/01/20 10:20:05;;;;;;;8.18;5.15;;;13.00;26.70;;;;;;5152345;27;45286;-49
2024/01/20 10:22:33;;;;;;;7.82;5.07;;;13.00;26.70;;;;;;5150206;27;47650;-48
2024/01/20 10:24:59;;;;;;;7.80;5.15;;;13.00;26.70;;;;;;5151569;27;45097;-49
2024/01/20 10:27:26;;;;;;;8.70;5.20;;;13.00;26.60;;;;;;5152568;27;45174;-49
2024/01/20 10:29:53;;;;;;;9.40;5.53;;;13.00;26.60;;;;;;5150958;27;45737;-49
2024/01/20 10:32:20;;;;;;;7.28;4.95;;;13.00;26.60;;;;;;5151691;27;45436;-49
2024/01/20 10:34:46;;;;;;;8.82;5.32;;;13.00;26.70;;;;;;5149153;27;45623;-48
2024/01/20 10:37:14;;;;;;;8.98;5.13;;;13.00;26.60;;;;;;5150362;27;45168;-49
2024/01/20 10:39:44;;;;;;;10.18;5.82;;;13.00;26.70;;;;;;5146004;27;45207;-49
2024/01/20 10:42:13;;;;;;;8.13;5.00;;;13.00;26.80;;;;;;5151222;27;46947;-48
2024/01/20 10:44:42;;;;;;;8.23;4.47;;;13.00;26.70;;;;;;5153590;27;45193;-50
2024/01/20 10:47:16;;;;;;;8.23;5.05;;;13.10;27.00;;;;;;5149652;27;45368;-49
2024/01/20 10:49:46;;;;;;;8.07;4.82;;;13.20;27.00;;;;;;5152146;27;45157;-49
2024/01/20 10:52:13;;;;;;;7.13;4.65;;;13.40;27.20;;;;;;5151910;27;45472;-48
2024/01/20 10:54:44;;;;;;;8.77;4.95;;;13.40;27.30;;;;;;5151352;27;45193;-48
2024/01/20 10:57:11;;;;;;;7.28;4.90;;;13.50;27.60;;;;;;5148259;27;45388;-49
2024/01/20 10:59:41;;;;;;;6.15;4.35;;;13.50;27.80;;;;;;5152632;27;45128;-48
2024/01/20 11:02:09;;;;;;;7.78;4.45;;;13.50;28.00;;;;;;5151066;27;45365;-49
2024/01/20 11:04:37;;;;;;;6.40;4.10;;;13.60;28.10;;;;;;5153495;27;45136;-49
2024/01/20 11:07:06;;;;;;;7.40;4.18;;;13.60;29.10;;;;;;5150597;27;45307;-49
2024/01/20 11:09:33;;;;;;;5.60;3.85;;;13.60;28.30;;;;;;5150992;27;45182;-49
2024/01/20 11:12:04;;;;;;;6.90;4.40;;;13.60;28.40;;;;;;5151814;27;46392;-48
2024/01/20 11:14:31;;;;;;;6.90;3.88;;;13.60;28.40;;;;;;5150283;27;45125;-49
2024/01/20 11:17:01;;;;;;;7.20;3.90;;;13.60;28.60;;;;;;5151133;27;45304;-49
2024/01/20 11:19:30;;;;;;;7.85;4.53;;;13.60;28.70;;;;;;5154440;27;45231;-49
2024/01/20 11:21:57;;;;;;;9.75;4.50;;;13.60;28.70;;;;;;5152232;27;46288;-49
2024/01/20 11:24:37;;;;;;;8.13;4.07;;;13.60;28.70;;;;;;5152921;27;45358;-49
2024/01/20 11:27:06;;;;;;;6.47;4.22;;;13.60;28.90;;;;;;5150613;27;45340;-49
2024/01/20 11:29:33;;;;;;;6.43;4.07;;;13.60;28.90;;;;;;5153959;27;45682;-49
2024/01/20 11:32:00;;;;;;;6.88;4.25;;;13.60;29.00;;;;;;5153150;27;47420;-49
2024/01/20 11:34:27;;;;;;;6.97;3.88;;;13.60;29.10;;;;;;5152097;27;45165;-49
2024/01/20 11:36:54;;;;;;;7.13;3.67;;;13.60;29.20;;;;;;5151056;27;45213;-49
2024/01/20 11:39:22;;;;;;;7.43;4.28;;;13.60;29.20;;;;;;5151857;27;44834;-49
2024/01/20 11:42:00;;;;;;;7.30;4.30;;;13.60;29.20;;;;;;5152336;27;48343;-49
2024/01/20 11:44:29;;;;;;;6.47;3.70;;;13.60;29.40;;;;;;5153374;27;45367;-49
2024/01/20 11:46:56;;;;;;;7.10;4.35;;;13.70;29.40;;;;;;5149963;27;45134;-49
2024/01/20 11:49:23;;;;;;;7.20;4.10;;;13.70;29.50;;;;;;5153220;27;45355;-49
2024/01/20 11:51:50;;;;;;;6.50;4.18;;;13.60;29.40;;;;;;5152710;27;46169;-49
2024/01/20 11:54:17;;;;;;;5.70;3.72;;;13.60;29.60;;;;;;5150093;27;45206;-49
2024/01/20 11:56:44;;;;;;;7.22;3.97;;;13.70;29.70;;;;;;5156115;27;44625;-49
2024/01/20 11:59:10;;;;;;;5.47;3.65;;;13.70;29.60;;;;;;5151162;27;45250;-49
2024/01/20 12:01:39;;;;;;;5.28;3.88;;;13.70;29.90;;;;;;5152463;27;45344;-49
2024/01/20 12:04:05;;;;;;;5.75;3.90;;;13.70;29.80;;;;;;5146731;27;45326;-49
2024/01/20 12:06:33;;;;;;;10.65;4.05;;;13.60;29.80;;;;;;5149804;27;44815;-48
2024/01/20 12:09:02;;;;;;;6.95;3.88;;;13.60;29.90;;;;;;5151196;27;45179;-49
2024/01/20 12:11:29;;;;;;;5.82;3.60;;;13.70;30.00;;;;;;5156280;27;45466;-49
2024/01/20 12:13:56;;;;;;;6.88;3.92;;;13.70;30.00;;;;;;5148479;27;45187;-49
2024/01/20 12:16:23;;;;;;;6.03;3.75;;;13.70;30.30;;;;;;5149704;27;45547;-48
2024/01/20 12:18:51;;;;;;;6.03;3.58;;;13.70;30.20;;;;;;5152412;27;45312;-49
2024/01/20 12:21:18;;;;;;;5.68;3.30;;;13.60;30.10;;;;;;5149599;27;46592;-49
2024/01/20 12:23:44;;;;;;;6.43;3.60;;;13.70;30.30;;;;;;5147466;27;45350;-49
2024/01/20 12:26:12;;;;;;;6.55;3.95;;;13.70;30.40;;;;;;5152257;27;45593;-49
2024/01/20 12:28:39;;;;;;;5.70;3.45;;;13.70;30.40;;;;;;5148351;27;45496;-49
2024/01/20 12:31:06;;;;;;;8.10;4.05;;;13.70;30.30;;;;;;5151373;27;45419;-49
2024/01/20 12:33:33;;;;;;;5.80;3.53;;;13.70;30.30;;;;;;5151116;27;45466;-49
2024/01/20 12:36:01;;;;;;;5.50;3.65;;;13.70;30.30;;;;;;5150213;27;45357;-49
2024/01/20 12:38:28;;;;;;;6.13;3.80;;;13.70;30.50;;;;;;5148940;27;45471;-49
2024/01/20 12:40:55;;;;;;;5.57;3.78;;;13.70;30.40;;;;;;5153906;27;46525;-49
2024/01/20 12:43:22;;;;;;;5.72;3.58;;;13.70;30.30;;;;;;5152840;27;45444;-49
2024/01/20 12:45:48;;;;;;;6.97;3.75;;;13.70;30.50;;;;;;5150481;27;45172;-49